Time;durP1;ratioP1;P1;durP2;ratioP2;P2;SDS_P1;SDS_P2;PMS_P1;PMS_P2;Temp;Humidity;BMP_temperature;BMP_pressure;BME280_temperature;BME280_humidity;BME280_pressure;Samples;Min_cycle;Max_cycle;Signal;HPM_P1;HPM_P2
2021/04/15 00:01:22;;;;;;;0.52;0.50;;;;;;;14.21;46.43;94710.63;6066029;23;20053;-68
2021/04/15 00:04:21;;;;;;;0.50;0.50;;;;;;;14.21;46.55;94713.25;6018693;23;20003;-68
2021/04/15 00:06:57;;;;;;;0.55;0.50;;;;;;;14.21;46.33;94710.63;5984361;23;20016;-68
2021/04/15 00:09:24;;;;;;;0.40;0.40;;;;;;;14.19;46.43;94712.63;5985626;23;20015;-68
2021/04/15 00:11:50;;;;;;;0.40;0.40;;;;;;;14.21;46.57;94709.78;6008783;23;20031;-68
2021/04/15 00:14:32;;;;;;;0.40;0.38;;;;;;;14.21;46.35;94704.53;5984423;23;20010;-67
2021/04/15 00:16:59;;;;;;;0.40;0.40;;;;;;;14.21;46.67;94704.53;6008590;23;20007;-68
2021/04/15 00:19:24;;;;;;;0.40;0.40;;;;;;;14.21;46.58;94702.75;6008737;23;20357;-67
2021/04/15 00:22:21;;;;;;;0.47;0.47;;;;;;;14.21;46.35;94702.75;5984997;23;20153;-68
2021/04/15 00:24:47;;;;;;;0.47;0.47;;;;;;;14.20;46.64;94703.72;6008826;23;21058;-68
2021/04/15 00:27:13;;;;;;;0.50;0.50;;;;;;;14.21;46.06;94702.75;5984526;23;20019;-68
2021/04/15 00:29:56;;;;;;;0.40;0.40;;;;;;;14.20;46.80;94695.84;6008414;23;20092;-68
2021/04/15 00:32:21;;;;;;;0.63;0.60;;;;;;;14.20;46.56;94693.19;5943685;24;20071;-68
2021/04/15 00:34:47;;;;;;;0.52;0.43;;;;;;;14.19;46.36;94700.25;5906605;24;20631;-68
2021/04/15 00:37:12;;;;;;;0.57;0.40;;;;;;;14.20;46.23;94693.19;5951473;24;20020;-67
2021/04/15 00:39:38;;;;;;;0.30;0.30;;;;;;;14.19;46.09;94692.38;5975847;24;20019;-65
2021/04/15 00:42:06;;;;;;;0.45;0.45;;;;;;;14.21;46.44;94692.22;5944281;23;20088;-68
2021/04/15 00:44:32;;;;;;;0.30;0.30;;;;;;;14.20;46.68;94687.94;6009204;23;20008;-68
2021/04/15 00:47:12;;;;;;;0.32;0.30;;;;;;;14.19;46.70;94686.28;6010484;23;20063;-67
2021/04/15 00:49:48;;;;;;;0.40;0.40;;;;;;;14.19;46.34;94687.09;5986274;23;20492;-67
2021/04/15 00:52:26;;;;;;;0.52;0.40;;;;;;;14.20;46.62;94682.66;6009691;23;20015;-67
2021/04/15 00:55:00;;;;;;;0.40;0.35;;;;;;;14.20;46.66;94687.94;6010792;23;20008;-67
2021/04/15 00:57:55;;;;;;;0.30;0.30;;;;;;;14.20;46.48;94682.66;5985882;23;20484;-68
2021/04/15 01:00:51;;;;;;;0.40;0.40;;;;;;;14.19;46.51;94684.47;6001807;23;20007;-67
2021/04/15 01:03:18;;;;;;;0.75;0.40;;;;;;;14.20;46.46;94677.41;6042993;23;20093;-68
2021/04/15 01:05:46;;;;;;;0.30;0.30;;;;;;;14.20;46.54;94687.94;6042983;23;20007;-68
2021/04/15 01:08:27;;;;;;;0.50;0.50;;;;;;;14.19;46.59;94681.84;6042738;23;20011;-68
2021/04/15 01:11:11;;;;;;;0.32;0.30;;;;;;;14.19;46.48;94673.94;6067150;23;20042;-68
2021/04/15 01:14:13;;;;;;;0.50;0.50;;;;;;;14.19;46.31;94678.41;6042198;23;20006;-68
2021/04/15 01:16:49;;;;;;;0.47;0.47;;;;;;;14.19;46.23;94671.31;6066896;23;20014;-68
2021/04/15 01:19:34;;;;;;;0.50;0.50;;;;;;;14.18;46.26;94672.34;6043143;23;20046;-67
2021/04/15 01:22:41;;;;;;;0.50;0.40;;;;;;;14.19;46.33;94678.41;6043346;23;20136;-68
2021/04/15 01:25:24;;;;;;;0.47;0.47;;;;;;;14.18;46.19;94680.22;6066328;23;20029;-67
2021/04/15 01:28:01;;;;;;;0.43;0.43;;;;;;;14.18;46.32;94679.38;6042642;23;20003;-67
2021/04/15 01:30:37;;;;;;;0.30;0.30;;;;;;;14.18;46.32;94676.75;6042437;23;20431;-68
2021/04/15 01:33:26;;;;;;;0.38;0.32;;;;;;;14.19;46.50;94681.03;6042241;23;20018;-68
2021/04/15 01:36:25;;;;;;;0.40;0.40;;;;;;;14.19;46.20;94678.41;6035655;23;20019;-68
2021/04/15 01:38:53;;;;;;;0.35;0.35;;;;;;;14.18;46.47;94679.38;6000706;23;20018;-68
2021/04/15 01:41:39;;;;;;;0.22;0.22;;;;;;;14.18;46.36;94680.22;6061999;23;20013;-68
2021/04/15 01:44:16;;;;;;;0.50;0.50;;;;;;;14.18;46.18;94672.34;5968219;23;20424;-68
2021/04/15 01:46:42;;;;;;;0.40;0.40;;;;;;;14.19;46.36;94678.41;5967430;23;20007;-67
2021/04/15 01:49:12;;;;;;;0.50;0.50;;;;;;;14.18;46.45;94674.13;5967785;23;20017;-68
2021/04/15 01:52:12;;;;;;;0.30;0.30;;;;;;;14.19;46.42;94683.66;6014743;23;20484;-68
2021/04/15 01:55:03;;;;;;;0.40;0.35;;;;;;;14.17;46.24;94673.31;5930480;24;20035;-68
2021/04/15 01:57:42;;;;;;;0.43;0.43;;;;;;;14.17;46.30;94670.69;5952931;24;20316;-68
2021/04/15 02:00:45;;;;;;;0.45;0.45;;;;;;;14.18;46.43;94666.22;5930741;24;20051;-67
2021/04/15 02:03:18;;;;;;;0.40;0.40;;;;;;;14.18;46.52;94666.22;5903290;24;20012;-68
2021/04/15 02:05:44;;;;;;;0.52;0.40;;;;;;;14.19;46.73;94667.88;5880219;24;20009;-67
2021/04/15 02:08:21;;;;;;;0.30;0.30;;;;;;;14.18;46.82;94659.16;5903257;24;20005;-68
2021/04/15 02:10:52;;;;;;;0.40;0.40;;;;;;;14.18;46.30;94659.16;5902534;24;20141;-68
2021/04/15 02:13:18;;;;;;;0.47;0.47;;;;;;;14.18;46.26;94656.53;5902734;24;20009;-68
2021/04/15 02:15:47;;;;;;;0.47;0.47;;;;;;;14.17;46.68;94662.78;5859313;24;20344;-67
2021/04/15 02:18:22;;;;;;;0.30;0.30;;;;;;;14.18;46.64;94658.34;5853524;24;20033;-68
2021/04/15 02:21:09;;;;;;;0.30;0.30;;;;;;;14.18;46.35;94664.44;5875881;24;20005;-67
2021/04/15 02:23:57;;;;;;;0.35;0.35;;;;;;;14.18;46.53;94660.97;5831922;24;20656;-68
2021/04/15 02:26:36;;;;;;;0.40;0.40;;;;;;;14.18;46.26;94658.34;5831815;24;20018;-67
2021/04/15 02:29:05;;;;;;;0.77;0.60;;;;;;;14.18;46.28;94659.16;5875487;24;20455;-68
2021/04/15 02:31:32;;;;;;;;;;;;;;;14.17;46.48;94661.97;5903926;24;20009;-68
2021/04/15 02:34:13;;;;;;;0.32;0.32;;;;;;;14.18;46.51;94666.22;5925741;24;19907;-68
2021/04/15 02:36:46;;;;;;;0.65;0.50;;;;;;;14.17;46.33;94662.78;5952145;23;20335;-67
2021/04/15 02:39:19;;;;;;;0.38;0.38;;;;;;;14.17;46.22;94661.97;6091882;23;20342;-67
2021/04/15 02:41:44;;;;;;;0.40;0.40;;;;;;;14.17;46.43;94660.16;6101238;23;20423;-67
2021/04/15 02:44:17;;;;;;;0.35;0.35;;;;;;;14.17;46.18;94659.31;6076699;23;20068;-67
2021/04/15 02:46:46;;;;;;;0.30;0.30;;;;;;;14.17;46.55;94657.53;6101098;23;20013;-67
2021/04/15 02:49:14;;;;;;;0.40;0.40;;;;;;;14.17;46.16;94654.06;6125603;23;20422;-68
2021/04/15 02:51:48;;;;;;;0.40;0.40;;;;;;;14.18;46.46;94653.06;6125334;23;20013;-66
2021/04/15 02:54:14;;;;;;;0.40;0.40;;;;;;;14.17;46.26;94657.53;6125114;23;20426;-68
2021/04/15 02:56:52;;;;;;;0.63;0.40;;;;;;;14.17;46.51;94657.53;6124815;23;20002;-67
2021/04/15 02:59:50;;;;;;;0.43;0.43;;;;;;;14.18;46.50;94655.69;6100199;23;20006;-68
2021/04/15 03:02:31;;;;;;;0.40;0.40;;;;;;;14.16;46.56;94650.63;6037219;23;20011;-67
2021/04/15 03:05:19;;;;;;;0.32;0.30;;;;;;;14.17;46.30;94651.44;5990944;23;20321;-67
2021/04/15 03:07:45;;;;;;;0.60;0.60;;;;;;;14.17;46.72;94654.06;6013433;23;20030;-67
2021/04/15 03:10:34;;;;;;;0.43;0.43;;;;;;;14.18;46.26;94653.06;5989510;23;20007;-68
2021/04/15 03:13:25;;;;;;;;;;;;;;;14.18;46.51;94650.44;5990084;23;20106;-68
2021/04/15 03:15:55;;;;;;;0.45;0.45;;;;;;;14.18;46.21;94650.44;6032431;23;20023;-67
2021/04/15 03:18:40;;;;;;;0.40;0.40;;;;;;;14.17;46.28;94651.44;5985966;23;20007;-68
2021/04/15 03:21:28;;;;;;;0.50;0.50;;;;;;;14.16;46.12;94645.38;6008463;23;20031;-68
2021/04/15 03:23:56;;;;;;;0.60;0.57;;;;;;;14.17;46.45;94647.00;5986733;23;20425;-67
2021/04/15 03:26:34;;;;;;;0.40;0.40;;;;;;;14.18;46.40;94645.19;5938299;23;20095;-68
2021/04/15 03:29:07;;;;;;;0.50;0.50;;;;;;;14.17;46.40;94641.75;5986709;23;20693;-68
2021/04/15 03:31:42;;;;;;;0.40;0.40;;;;;;;14.17;46.61;94641.75;5985789;23;20007;-68
2021/04/15 03:34:14;;;;;;;1.02;0.50;;;;;;;14.17;46.44;94652.28;5985570;23;20070;-68
2021/04/15 03:36:41;;;;;;;0.38;0.38;;;;;;;14.17;46.61;94646.16;5986247;23;20007;-68
2021/04/15 03:39:23;;;;;;;0.30;0.30;;;;;;;14.16;46.74;94645.38;5989620;23;20027;-67
2021/04/15 03:41:50;;;;;;;0.40;0.40;;;;;;;14.16;46.30;94652.44;5992443;23;20341;-68
2021/04/15 03:44:31;;;;;;;0.50;0.50;;;;;;;14.15;46.23;94649.00;5990264;23;20261;-67
2021/04/15 03:47:03;;;;;;;0.35;0.35;;;;;;;14.15;46.12;94649.00;5990350;23;20050;-68
2021/04/15 03:49:43;;;;;;;0.30;0.30;;;;;;;14.15;46.39;94643.72;5989605;23;20011;-68
2021/04/15 03:52:35;;;;;;;0.30;0.30;;;;;;;14.16;46.56;94649.81;6034202;23;20006;-65
2021/04/15 03:55:39;;;;;;;0.40;0.40;;;;;;;14.16;46.32;94641.94;6064322;23;20003;-68
2021/04/15 03:58:29;;;;;;;0.30;0.30;;;;;;;14.16;46.60;94644.56;6040744;23;20034;-67
2021/04/15 04:01:24;;;;;;;0.30;0.30;;;;;;;14.16;46.59;94647.19;6046150;23;20006;-68
2021/04/15 04:04:37;;;;;;;0.50;0.50;;;;;;;14.15;46.26;94641.09;6040441;23;20038;-68
2021/04/15 04:07:07;;;;;;;0.45;0.40;;;;;;;14.16;46.39;94645.38;6021400;23;20026;-68
2021/04/15 04:09:40;;;;;;;0.75;0.50;;;;;;;14.16;46.32;94645.38;6041534;23;20125;-68
2021/04/15 04:12:16;;;;;;;0.35;0.30;;;;;;;14.16;46.58;94650.63;6018393;23;20011;-67
2021/04/15 04:14:44;;;;;;;0.68;0.50;;;;;;;14.16;46.25;94648.00;6018580;23;20050;-67
2021/04/15 04:17:36;;;;;;;0.50;0.50;;;;;;;14.16;46.17;94650.63;6042274;23;20010;-68
2021/04/15 04:20:06;;;;;;;0.45;0.45;;;;;;;14.16;46.22;94653.25;6046906;23;20010;-68
2021/04/15 04:22:47;;;;;;;0.50;0.50;;;;;;;14.16;46.61;94650.63;6020793;23;20011;-68
2021/04/15 04:25:15;;;;;;;0.40;0.40;;;;;;;14.16;46.38;94658.53;6042934;23;20023;-68
2021/04/15 04:28:00;;;;;;;0.82;0.55;;;;;;;14.16;46.23;94658.53;6043062;23;20014;-68
2021/04/15 04:30:38;;;;;;;0.50;0.47;;;;;;;14.17;46.12;94661.97;6043795;23;20034;-68
2021/04/15 04:33:05;;;;;;;0.40;0.40;;;;;;;14.15;46.70;94658.72;6069884;23;20010;-68
2021/04/15 04:35:45;;;;;;;0.68;0.40;;;;;;;14.16;46.06;94665.63;6097210;23;20003;-68
2021/04/15 04:38:26;;;;;;;0.50;0.50;;;;;;;14.15;46.60;94670.03;6101283;23;19998;-67
2021/04/15 04:40:54;;;;;;;0.40;0.40;;;;;;;14.16;46.48;94665.63;6078564;23;20375;-68
2021/04/15 04:43:56;;;;;;;0.40;0.40;;;;;;;14.16;46.15;94673.50;6077699;23;20076;-68
2021/04/15 04:46:31;;;;;;;0.60;0.52;;;;;;;14.16;46.13;94676.13;6065672;23;20330;-68
2021/04/15 04:49:05;;;;;;;0.40;0.40;;;;;;;14.14;46.39;94668.44;6067264;23;20018;-67
2021/04/15 04:51:51;;;;;;;0.40;0.40;;;;;;;14.16;46.26;94681.41;5996123;23;20011;-68
2021/04/15 04:54:18;;;;;;;0.40;0.40;;;;;;;14.15;46.46;94680.56;6042967;23;20002;-68
2021/04/15 04:57:02;;;;;;;0.38;0.38;;;;;;;14.15;46.10;94683.19;6042774;23;20423;-66
2021/04/15 04:59:36;;;;;;;0.60;0.60;;;;;;;14.16;46.33;94684.03;6046176;23;20002;-68
2021/04/15 05:02:04;;;;;;;0.45;0.32;;;;;;;14.16;46.61;94681.41;6019739;23;20023;-67
2021/04/15 05:04:33;;;;;;;0.50;0.50;;;;;;;14.16;46.42;94676.13;5995550;23;20061;-67
2021/04/15 05:07:12;;;;;;;0.30;0.30;;;;;;;14.16;46.42;94676.13;6019092;23;20018;-67
2021/04/15 05:09:40;;;;;;;0.22;0.22;;;;;;;14.16;46.37;94676.13;6020240;23;20611;-66
2021/04/15 05:12:13;;;;;;;0.47;0.43;;;;;;;14.16;46.46;94678.78;6043572;23;20336;-67
2021/04/15 05:14:41;;;;;;;0.52;0.40;;;;;;;14.15;46.46;94685.81;6044406;23;20003;-67
2021/04/15 05:17:27;;;;;;;0.55;0.52;;;;;;;14.15;46.11;94679.75;6044184;23;20424;-67
2021/04/15 05:19:54;;;;;;;0.40;0.40;;;;;;;14.16;46.32;94681.41;6042798;23;20010;-67
2021/04/15 05:22:26;;;;;;;0.43;0.43;;;;;;;14.16;46.44;94690.09;6083265;23;20029;-67
2021/04/15 05:25:21;;;;;;;0.40;0.40;;;;;;;14.16;46.58;94686.66;6101776;23;20002;-68
2021/04/15 05:27:46;;;;;;;0.50;0.40;;;;;;;14.16;46.09;94681.41;6101964;23;20335;-66
2021/04/15 05:30:40;;;;;;;0.47;0.47;;;;;;;14.16;46.61;94689.28;6101195;23;20021;-67
2021/04/15 05:33:08;;;;;;;0.45;0.30;;;;;;;14.16;46.40;94694.56;6100762;23;20049;-68
2021/04/15 05:35:43;;;;;;;0.30;0.30;;;;;;;14.15;46.38;94691.09;6100466;23;20016;-68
2021/04/15 05:38:10;;;;;;;0.30;0.30;;;;;;;14.15;46.38;94691.09;6076984;23;20005;-66
2021/04/15 05:40:35;;;;;;;0.50;0.50;;;;;;;14.15;46.12;94690.28;6100687;23;20005;-67
2021/04/15 05:43:39;;;;;;;0.45;0.45;;;;;;;14.16;46.56;94691.94;6101468;23;20012;-64
2021/04/15 05:46:11;;;;;;;0.40;0.40;;;;;;;14.16;46.49;94697.19;6101397;23;20010;-67
2021/04/15 05:48:38;;;;;;;0.40;0.40;;;;;;;14.15;46.19;94685.81;6100989;23;20013;-68
2021/04/15 05:51:08;;;;;;;0.38;0.38;;;;;;;14.15;46.38;94690.28;6077047;23;20073;-66
2021/04/15 05:53:39;;;;;;;0.30;0.30;;;;;;;14.15;46.06;94691.09;6101177;23;20068;-68
2021/04/15 05:56:15;;;;;;;0.40;0.40;;;;;;;14.16;46.31;94691.94;6100961;23;20080;-67
2021/04/15 05:59:13;;;;;;;0.80;0.52;;;;;;;14.15;46.49;94690.28;6125711;23;20002;-67
2021/04/15 06:01:41;;;;;;;0.40;0.40;;;;;;;14.16;46.25;94691.94;6065299;23;20058;-67
2021/04/15 06:04:37;;;;;;;0.30;0.30;;;;;;;14.16;46.46;94689.28;6042029;23;20010;-67
2021/04/15 06:07:03;;;;;;;0.40;0.40;;;;;;;14.16;46.21;94694.56;6041364;23;20030;-67
2021/04/15 06:09:30;;;;;;;0.35;0.30;;;;;;;14.16;46.65;94689.28;6042495;23;20430;-65
2021/04/15 06:12:15;;;;;;;0.40;0.40;;;;;;;14.15;46.39;94693.72;6018167;23;20011;-68
2021/04/15 06:14:44;;;;;;;0.50;0.50;;;;;;;14.17;46.65;94696.16;6043884;23;20014;-68
2021/04/15 06:17:28;;;;;;;0.40;0.40;;;;;;;14.16;46.06;94694.56;6042174;23;20021;-68
2021/04/15 06:20:25;;;;;;;0.40;0.40;;;;;;;14.15;46.37;94693.72;6041724;23;20423;-67
2021/04/15 06:23:21;;;;;;;0.32;0.32;;;;;;;14.15;46.24;94695.56;6013594;23;20011;-68
2021/04/15 06:25:58;;;;;;;0.40;0.40;;;;;;;14.16;45.99;94694.56;6037804;23;20015;-68
2021/04/15 06:28:32;;;;;;;0.65;0.65;;;;;;;14.16;46.26;94702.47;6037378;23;20392;-68
2021/04/15 06:31:24;;;;;;;0.30;0.30;;;;;;;14.14;46.12;94699.16;6060469;23;20003;-68
2021/04/15 06:34:04;;;;;;;0.50;0.50;;;;;;;14.11;46.30;94700.34;6060755;23;20008;-66
2021/04/15 06:36:44;;;;;;;0.40;0.40;;;;;;;14.12;46.35;94701.19;6060109;23;20007;-68
2021/04/15 06:39:30;;;;;;;;;;;;;;;14.11;46.31;94708.25;6060830;23;20027;-67
2021/04/15 06:42:33;;;;;;;0.40;0.40;;;;;;;14.11;46.42;94704.81;6037432;23;20279;-67
2021/04/15 06:45:22;;;;;;;0.38;0.38;;;;;;;14.10;46.31;94711.06;6012759;23;20003;-67
2021/04/15 06:48:22;;;;;;;0.40;0.40;;;;;;;14.09;46.47;94704.16;6015823;23;20007;-68
2021/04/15 06:50:52;;;;;;;0.50;0.50;;;;;;;14.09;46.44;94712.03;6011236;23;20015;-67
2021/04/15 06:53:56;;;;;;;0.55;0.55;;;;;;;14.08;46.28;94710.44;6012670;23;20014;-67
2021/04/15 06:56:34;;;;;;;0.50;0.50;;;;;;;14.07;46.30;94712.22;6014295;23;20031;-67
2021/04/15 06:59:37;;;;;;;0.40;0.40;;;;;;;14.08;46.18;94715.69;6036374;23;20006;-67
2021/04/15 07:02:22;;;;;;;0.40;0.40;;;;;;;14.08;46.22;94702.53;6100493;23;20099;-67
2021/04/15 07:04:57;;;;;;;0.45;0.45;;;;;;;14.09;46.58;94712.03;6124679;23;20102;-68
2021/04/15 07:07:32;;;;;;;0.40;0.40;;;;;;;14.08;46.39;94710.44;6100339;23;20006;-68
2021/04/15 07:10:13;;;;;;;0.40;0.40;;;;;;;14.08;46.15;94707.81;6098216;23;20013;-68
2021/04/15 07:12:54;;;;;;;0.30;0.30;;;;;;;14.09;46.17;94701.53;6100685;23;20308;-64
2021/04/15 07:15:48;;;;;;;0.40;0.40;;;;;;;14.08;46.24;94700.72;6099868;23;20013;-67
2021/04/15 07:18:35;;;;;;;0.40;0.40;;;;;;;14.08;46.38;94694.66;6124741;23;20006;-67
2021/04/15 07:21:08;;;;;;;0.45;0.45;;;;;;;14.08;45.81;94694.66;6124591;23;20002;-65
2021/04/15 07:23:45;;;;;;;0.40;0.40;;;;;;;14.08;45.95;94700.72;6124101;23;20006;-68
2021/04/15 07:26:45;;;;;;;0.20;0.20;;;;;;;14.09;46.25;94704.16;6099628;23;20030;-67
2021/04/15 07:29:35;;;;;;;0.35;0.30;;;;;;;14.09;46.23;94704.16;6124814;23;20016;-68
2021/04/15 07:32:24;;;;;;;;;;;;;;;14.08;46.22;94702.53;6124843;23;20415;-66
2021/04/15 07:34:59;;;;;;;0.47;0.47;;;;;;;14.07;45.98;94701.69;6124270;23;19917;-68
2021/04/15 07:38:09;;;;;;;0.50;0.50;;;;;;;14.06;46.22;94707.16;6099225;23;20009;-67
2021/04/15 07:40:56;;;;;;;0.30;0.30;;;;;;;14.07;46.00;94719.31;6095017;23;20013;-68
2021/04/15 07:43:37;;;;;;;0.40;0.40;;;;;;;14.07;45.95;94708.78;6099606;23;20018;-66
2021/04/15 07:46:30;;;;;;;0.50;0.50;;;;;;;14.07;46.36;94719.31;6097685;23;20002;-67
2021/04/15 07:52:22;;;;;;;0.30;0.30;;;;;;;14.05;46.16;94708.97;6125695;23;20010;-66
2021/04/15 07:54:59;;;;;;;0.38;0.38;;;;;;;14.06;45.91;94709.78;6099616;23;20021;-68
2021/04/15 07:57:55;;;;;;;0.32;0.32;;;;;;;14.06;46.09;94718.50;6126245;23;20002;-67
2021/04/15 08:00:28;;;;;;;0.47;0.47;;;;;;;14.06;46.13;94707.97;6099252;23;20017;-67
2021/04/15 08:03:13;;;;;;;0.52;0.52;;;;;;;14.07;45.69;94712.22;6099764;23;20097;-67
2021/04/15 08:05:57;;;;;;;0.35;0.30;;;;;;;14.06;46.31;94713.25;6125161;23;20010;-67
2021/04/15 08:08:36;;;;;;;0.30;0.30;;;;;;;14.07;45.90;94720.13;6124952;23;20005;-67
2021/04/15 08:11:26;;;;;;;0.57;0.57;;;;;;;14.07;45.88;94721.94;6100250;23;20378;-67
2021/04/15 08:14:02;;;;;;;0.43;0.40;;;;;;;14.06;46.13;94713.25;6124201;23;19998;-67
2021/04/15 08:20:02;;;;;;;0.30;0.30;;;;;;;14.05;46.04;94714.25;6036591;23;20071;-66
2021/04/15 08:23:05;;;;;;;0.30;0.30;;;;;;;14.05;45.94;94714.25;6036718;23;20333;-66
2021/04/15 08:25:46;;;;;;;0.38;0.38;;;;;;;14.07;45.98;94724.56;6010965;23;20007;-66
2021/04/15 08:28:34;;;;;;;0.55;0.40;;;;;;;14.06;45.93;94720.31;6013076;23;20102;-67
2021/04/15 08:31:20;;;;;;;0.32;0.32;;;;;;;14.06;46.05;94718.50;6036050;23;20079;-67
2021/04/15 08:33:56;;;;;;;0.32;0.32;;;;;;;14.06;45.74;94722.94;6036364;23;20368;-67
2021/04/15 08:36:57;;;;;;;0.40;0.40;;;;;;;14.06;45.86;94720.31;6012359;23;20031;-67
2021/04/15 08:40:00;;;;;;;0.55;0.40;;;;;;;14.06;45.95;94715.03;6012172;23;20107;-67
2021/04/15 08:42:44;;;;;;;0.40;0.40;;;;;;;14.06;45.94;94721.16;6035963;23;20014;-66
2021/04/15 08:45:30;;;;;;;0.30;0.30;;;;;;;14.06;45.66;94722.94;6011551;23;20098;-67
2021/04/15 08:48:36;;;;;;;0.40;0.40;;;;;;;14.06;45.80;94725.56;6036053;23;20011;-67
2021/04/15 08:51:35;;;;;;;0.30;0.30;;;;;;;14.05;45.60;94722.13;6036199;23;20524;-67
2021/04/15 08:54:26;;;;;;;0.60;0.40;;;;;;;14.06;45.95;94712.41;6036519;23;20004;-64
2021/04/15 08:57:33;;;;;;;0.82;0.35;;;;;;;14.05;45.97;94710.78;6071252;23;19998;-67
2021/04/15 09:00:12;;;;;;;0.40;0.40;;;;;;;14.05;45.76;94710.78;6064756;23;20007;-67
2021/04/15 09:02:44;;;;;;;0.50;0.50;;;;;;;14.06;45.89;94709.78;6041084;23;20007;-67
2021/04/15 09:05:48;;;;;;;0.40;0.40;;;;;;;14.05;45.64;94718.66;6042360;23;20011;-68
2021/04/15 09:08:26;;;;;;;0.50;0.50;;;;;;;14.06;45.69;94707.16;6067027;23;20014;-67
2021/04/15 09:10:56;;;;;;;0.38;0.38;;;;;;;14.06;45.94;94712.41;6044065;23;20003;-67
2021/04/15 09:13:36;;;;;;;0.63;0.40;;;;;;;14.06;45.91;94707.16;6019004;23;20007;-68
2021/04/15 09:16:42;;;;;;;0.40;0.40;;;;;;;14.05;45.88;94706.34;6018701;23;20003;-67
2021/04/15 09:19:50;;;;;;;0.32;0.32;;;;;;;14.05;45.98;94702.88;6046101;23;20007;-67
2021/04/15 09:22:38;;;;;;;0.28;0.28;;;;;;;14.06;45.76;94704.50;5962312;24;20389;-67
2021/04/15 09:25:06;;;;;;;0.40;0.40;;;;;;;14.06;45.57;94704.50;5958176;24;20015;-65
2021/04/15 09:27:41;;;;;;;0.40;0.40;;;;;;;14.04;45.88;94694.19;5957950;24;20915;-67
2021/04/15 09:30:33;;;;;;;0.32;0.32;;;;;;;14.05;45.56;94706.34;5935600;24;20012;-67
2021/04/15 09:33:24;;;;;;;0.47;0.47;;;;;;;14.05;45.66;94694.97;5981285;24;20031;-67
2021/04/15 09:36:02;;;;;;;0.30;0.30;;;;;;;14.05;45.87;94700.25;5941791;23;20462;-68
2021/04/15 09:38:54;;;;;;;0.47;0.47;;;;;;;14.04;45.61;94702.06;6009785;23;20008;-68
2021/04/15 09:41:50;;;;;;;0.40;0.40;;;;;;;14.05;45.55;94701.09;6006449;23;20011;-67
2021/04/15 09:44:27;;;;;;;0.50;0.50;;;;;;;14.05;45.48;94692.34;6008668;23;20008;-67
2021/04/15 09:46:55;;;;;;;0.40;0.40;;;;;;;14.05;45.81;94695.81;5985512;23;20034;-67
2021/04/15 09:49:33;;;;;;;0.33;0.33;;;;;;;14.05;45.70;94698.44;5983466;23;20020;-66
2021/04/15 09:52:23;;;;;;;0.40;0.40;;;;;;;14.05;45.70;94692.34;5983383;23;20011;-67
2021/04/15 09:55:12;;;;;;;0.40;0.40;;;;;;;14.04;45.67;94704.69;6006284;23;20079;-67
2021/04/15 09:57:50;;;;;;;0.30;0.30;;;;;;;14.04;45.35;94698.63;6006916;23;20015;-66
2021/04/15 10:00:20;;;;;;;0.43;0.43;;;;;;;14.05;45.69;94689.72;6110226;23;20017;-67
2021/04/15 10:03:12;;;;;;;0.40;0.40;;;;;;;14.05;45.45;94684.47;6099915;23;20434;-67
2021/04/15 10:06:17;;;;;;;0.50;0.50;;;;;;;14.04;45.47;94691.53;6100302;23;20029;-65
2021/04/15 10:08:54;;;;;;;0.47;0.40;;;;;;;14.05;45.69;94689.72;6101660;23;20061;-67
2021/04/15 10:11:44;;;;;;;0.43;0.40;;;;;;;14.04;45.81;94688.91;6126268;23;20434;-66
2021/04/15 10:14:32;;;;;;;0.35;0.35;;;;;;;14.05;45.41;94684.47;6124198;23;20345;-67
2021/04/15 10:16:58;;;;;;;0.30;0.30;;;;;;;14.05;45.58;94684.47;6101137;23;20387;-67
2021/04/15 10:19:51;;;;;;;0.45;0.45;;;;;;;14.04;45.59;94681.03;6100718;23;20014;-67
2021/04/15 10:22:31;;;;;;;0.38;0.38;;;;;;;14.04;45.77;94672.31;6100624;23;20064;-66
2021/04/15 10:25:07;;;;;;;0.40;0.40;;;;;;;14.04;45.63;94680.22;6100634;23;20006;-67
2021/04/15 10:28:08;;;;;;;0.35;0.35;;;;;;;14.05;45.64;94676.56;6100937;23;20002;-66
2021/04/15 10:31:03;;;;;;;0.40;0.40;;;;;;;14.04;45.75;94667.88;6066120;23;20480;-67
2021/04/15 10:34:16;;;;;;;0.50;0.50;;;;;;;14.27;44.90;94670.41;6041787;23;20010;-69
2021/04/15 10:36:55;;;;;;;0.40;0.40;;;;;;;14.15;43.81;94664.78;6067092;23;20507;-62
2021/04/15 10:39:54;;;;;;;0.43;0.43;;;;;;;14.16;43.95;94661.16;6041173;23;20011;-66
2021/04/15 10:42:50;;;;;;;1.00;0.70;;;;;;;14.12;44.63;94653.81;6041994;23;20440;-66
2021/04/15 10:45:27;;;;;;;0.50;0.50;;;;;;;14.09;45.13;94659.41;6041611;23;20047;-66
2021/04/15 10:48:14;;;;;;;0.47;0.47;;;;;;;14.07;45.01;94656.97;6042463;23;20050;-67
2021/04/15 10:51:01;;;;;;;0.30;0.30;;;;;;;14.08;44.93;94663.88;6042098;23;20003;-67
2021/04/15 10:53:52;;;;;;;2.75;0.45;;;;;;;14.08;45.22;94658.59;5997353;23;20325;-64
2021/04/15 10:56:43;;;;;;;0.45;0.45;;;;;;;14.08;44.99;94657.81;6065826;23;20010;-67
2021/04/15 10:59:35;;;;;;;0.55;0.55;;;;;;;14.07;45.36;94650.91;6044184;23;20017;-66
2021/04/15 11:02:32;;;;;;;1.13;0.50;;;;;;;14.06;44.97;94651.91;6020200;23;20359;-64
2021/04/15 11:05:18;;;;;;;0.47;0.47;;;;;;;14.08;45.28;94652.53;6020360;23;20022;-66
2021/04/15 11:07:43;;;;;;;0.32;0.32;;;;;;;14.07;44.91;94648.28;6124469;23;20021;-66
2021/04/15 11:10:30;;;;;;;0.38;0.38;;;;;;;14.08;44.90;94653.34;6099925;23;20009;-66
2021/04/15 11:13:12;;;;;;;0.40;0.40;;;;;;;14.07;45.16;94654.34;6100573;23;20002;-66
2021/04/15 11:15:46;;;;;;;0.40;0.40;;;;;;;14.06;44.94;94644.84;6098334;23;20029;-66
2021/04/15 11:18:25;;;;;;;0.30;0.30;;;;;;;14.06;45.15;94639.56;6099988;23;20072;-66
2021/04/15 11:21:11;;;;;;;;;;;;;;;14.07;45.05;94637.75;6100382;23;20068;-67
2021/04/15 11:23:44;;;;;;;0.82;0.50;;;;;;;14.56;43.71;94636.34;6149523;23;19909;-52
2021/04/15 11:26:31;;;;;;;0.40;0.40;;;;;;;14.32;44.23;94638.25;6124286;23;19998;-53
2021/04/15 11:28:58;;;;;;;0.50;0.50;;;;;;;14.16;44.71;94628.78;5976516;24;20408;-48
2021/04/15 11:31:36;;;;;;;0.68;0.50;;;;;;;14.09;45.37;94630.47;5933837;24;20016;-48
2021/04/15 11:34:15;;;;;;;0.60;0.60;;;;;;;14.01;45.34;94634.84;5934522;24;20012;-50
2021/04/15 11:36:56;;;;;;;0.60;0.50;;;;;;;14.00;45.38;94637.66;5933576;24;20082;-53
2021/04/15 11:39:31;;;;;;;0.40;0.40;;;;;;;13.97;45.06;94635.38;5935064;24;20008;-53
2021/04/15 11:41:57;;;;;;;0.88;0.55;;;;;;;13.95;45.66;94638.22;5933588;24;20016;-50
2021/04/15 11:44:31;;;;;;;0.40;0.40;;;;;;;13.95;45.55;94637.38;5980000;24;20022;-53
2021/04/15 11:47:05;;;;;;;0.63;0.40;;;;;;;13.96;45.64;94639.00;5933920;24;20018;-49
2021/04/15 11:49:31;;;;;;;0.63;0.50;;;;;;;13.95;45.61;94632.94;5980116;24;20355;-48
2021/04/15 11:52:12;;;;;;;0.90;0.40;;;;;;;13.95;45.55;94632.94;5980199;24;20036;-52
2021/04/15 11:54:58;;;;;;;0.57;0.30;;;;;;;13.95;45.65;94629.47;5957239;24;20098;-50
2021/04/15 11:57:54;;;;;;;0.40;0.40;;;;;;;13.95;45.46;94627.69;5933273;24;20053;-54
2021/04/15 12:00:25;;;;;;;0.40;0.40;;;;;;;13.95;45.50;94621.59;5934170;24;20351;-49
2021/04/15 12:02:50;;;;;;;0.20;0.20;;;;;;;13.95;45.65;94621.59;5934697;24;20111;-51
2021/04/15 12:05:26;;;;;;;0.35;0.35;;;;;;;13.93;45.40;94629.66;6005267;23;20727;-52
2021/04/15 12:07:58;;;;;;;0.30;0.30;;;;;;;13.95;45.40;94629.47;6101077;23;20001;-53
2021/04/15 12:11:32;;;;;;;0.30;0.30;;;;;;;13.95;45.61;94637.38;6077372;23;20008;-51
2021/04/15 12:14:09;;;;;;;1.88;0.40;;;;;;;13.94;45.67;94631.31;6036628;23;20018;-49
2021/04/15 12:16:56;;;;;;;0.30;0.30;;;;;;;13.95;45.23;94634.75;5968206;23;20014;-52
2021/04/15 12:19:27;;;;;;;0.60;0.60;;;;;;;13.95;45.24;94632.94;6012751;23;20425;-47
2021/04/15 12:22:00;;;;;;;0.55;0.47;;;;;;;13.95;45.12;94632.09;6013324;23;20328;-51
2021/04/15 12:25:00;;;;;;;1.33;0.50;;;;;;;13.97;44.98;94628.31;5989215;23;20007;-49
2021/04/15 12:27:26;;;;;;;0.60;0.60;;;;;;;13.97;44.80;94627.50;5906441;24;20100;-47
2021/04/15 12:30:03;;;;;;;0.52;0.52;;;;;;;13.96;44.80;94625.84;5929555;24;20074;-48
2021/04/15 12:33:18;;;;;;;0.55;0.55;;;;;;;13.96;44.85;94629.28;5928981;24;20013;-48
2021/04/15 12:36:25;;;;;;;0.30;0.30;;;;;;;13.95;45.04;94622.41;5874297;24;20475;-50
2021/04/15 12:38:57;;;;;;;0.50;0.50;;;;;;;13.95;45.73;94622.41;5844013;24;20006;-49
2021/04/15 12:41:24;;;;;;;1.10;0.50;;;;;;;13.95;45.64;94617.16;5843989;24;20029;-51
2021/04/15 12:44:10;;;;;;;0.40;0.40;;;;;;;13.94;45.15;94619.94;5845143;24;20010;-50
2021/04/15 12:46:35;;;;;;;0.50;0.40;;;;;;;13.94;45.47;94615.53;5822816;24;20452;-50